createdAt,value
2022-11-18T00:01:11.381Z,9.87
2022-11-18T00:03:38.833Z,8.83
2022-11-18T00:06:06.072Z,11.93
2022-11-18T00:08:34.226Z,10.53
2022-11-18T00:11:46.348Z,11.47
2022-11-18T00:14:22.283Z,14.23
2022-11-18T00:16:52.452Z,11.17
2022-11-18T00:19:21.614Z,13.03
2022-11-18T00:21:48.944Z,10.23
2022-11-18T00:24:15.884Z,11.40
2022-11-18T00:26:42.349Z,12.00
2022-11-18T00:29:12.367Z,10.93
2022-11-18T00:31:39.919Z,12.07
2022-11-18T00:34:07.414Z,10.17
2022-11-18T00:36:33.968Z,10.40
2022-11-18T00:39:00.523Z,9.00
2022-11-18T00:41:47.526Z,16.03
2022-11-18T00:44:14.154Z,9.90
2022-11-18T00:46:40.662Z,12.00
2022-11-18T00:49:07.418Z,12.00
2022-11-18T00:51:34.975Z,9.33
2022-11-18T00:54:02.134Z,13.43
2022-11-18T00:56:28.735Z,12.23
2022-11-18T00:58:55.615Z,12.63
2022-11-18T01:01:22.088Z,10.73
2022-11-18T01:03:48.510Z,7.87
2022-11-18T01:06:15.067Z,10.03
2022-11-18T01:08:41.534Z,10.50
2022-11-18T01:11:26.571Z,12.13
2022-11-18T01:13:53.528Z,9.20
2022-11-18T01:16:21.381Z,12.20
2022-11-18T01:18:48.245Z,11.20
2022-11-18T01:21:15.007Z,10.40
2022-11-18T01:23:41.755Z,12.97
2022-11-18T01:26:10.170Z,9.90
2022-11-18T01:28:36.693Z,13.57
2022-11-18T01:31:04.718Z,10.37
2022-11-18T01:33:31.315Z,15.77
2022-11-18T01:35:57.710Z,10.70
2022-11-18T01:38:24.087Z,10.57
2022-11-18T01:40:50.611Z,12.33
2022-11-18T01:43:20.035Z,8.80
2022-11-18T01:45:48.138Z,11.90
2022-11-18T01:48:27.136Z,12.63
2022-11-18T01:51:02.241Z,12.50
2022-11-18T01:53:34.551Z,11.57
2022-11-18T01:56:05.594Z,12.30
2022-11-18T01:58:38.115Z,10.30
2022-11-18T02:01:05.346Z,13.40
2022-11-18T02:03:33.285Z,11.70
2022-11-18T02:06:00.839Z,12.20
2022-11-18T02:08:28.253Z,12.13
2022-11-18T02:10:54.784Z,6.67
2022-11-18T02:13:21.879Z,9.67
2022-11-18T02:16:06.219Z,8.17
2022-11-18T02:18:52.599Z,9.40
2022-11-18T02:21:27.808Z,15.37
2022-11-18T02:24:14.341Z,9.67
2022-11-18T02:27:00.315Z,15.63
2022-11-18T02:29:30.420Z,10.63
2022-11-18T02:32:04.786Z,9.40
2022-11-18T02:34:39.999Z,8.63
2022-11-18T02:37:20.803Z,10.27
2022-11-18T02:40:21.618Z,12.77
2022-11-18T02:42:52.194Z,10.43
2022-11-18T02:45:21.335Z,10.57
2022-11-18T02:47:49.568Z,10.37
2022-11-18T02:50:19.561Z,9.60
2022-11-18T02:52:46.587Z,11.23
2022-11-18T02:55:14.824Z,9.53
2022-11-18T02:57:42.760Z,10.87
2022-11-18T03:00:09.830Z,15.60
2022-11-18T03:02:44.787Z,9.63
2022-11-18T03:05:28.255Z,11.20
2022-11-18T03:08:02.319Z,9.43
2022-11-18T03:10:33.420Z,9.17
2022-11-18T03:13:10.498Z,10.97
2022-11-18T03:15:52.443Z,11.40
2022-11-18T03:18:25.411Z,8.73
2022-11-18T03:21:04.200Z,10.33
2022-11-18T03:23:41.655Z,8.47
2022-11-18T03:26:19.255Z,12.60
2022-11-18T03:28:53.619Z,13.33
2022-11-18T03:31:24.437Z,9.80
2022-11-18T03:34:00.194Z,12.33
2022-11-18T03:36:29.692Z,9.37
2022-11-18T03:38:59.378Z,8.73
2022-11-18T03:41:29.805Z,12.40
2022-11-18T03:44:00.171Z,10.00
2022-11-18T03:46:31.878Z,10.97
2022-11-18T03:48:59.223Z,9.80
2022-11-18T03:51:36.527Z,11.00
2022-11-18T03:54:13.565Z,9.17
2022-11-18T03:56:43.654Z,12.93
2022-11-18T03:59:17.255Z,13.67
2022-11-18T04:01:52.243Z,12.37
2022-11-18T04:04:20.113Z,12.80
2022-11-18T04:06:49.609Z,14.17
2022-11-18T04:09:23.167Z,8.83
2022-11-18T04:12:03.203Z,12.40
2022-11-18T04:14:35.188Z,11.13
2022-11-18T04:17:09.110Z,13.30
2022-11-18T04:19:37.025Z,11.73
2022-11-18T04:22:03.628Z,14.83
2022-11-18T04:24:29.966Z,11.00
2022-11-18T04:26:56.365Z,10.73
2022-11-18T04:29:22.721Z,12.00
2022-11-18T04:31:49.225Z,9.37
2022-11-18T04:34:15.731Z,14.73
2022-11-18T04:36:42.105Z,14.97
2022-11-18T04:39:08.702Z,16.00
2022-11-18T04:41:53.646Z,11.83
2022-11-18T04:44:19.993Z,13.93
2022-11-18T04:46:46.394Z,14.83
2022-11-18T04:49:14.192Z,13.80
2022-11-18T04:51:41.790Z,13.53
2022-11-18T04:54:08.721Z,12.03
2022-11-18T04:56:35.240Z,14.20
2022-11-18T04:59:02.637Z,11.43
2022-11-18T05:01:29.694Z,12.80
2022-11-18T05:03:56.758Z,11.93
2022-11-18T05:06:23.427Z,16.27
2022-11-18T05:08:50.131Z,10.57
2022-11-18T05:11:35.324Z,19.57
2022-11-18T05:14:01.929Z,13.63
2022-11-18T05:16:28.439Z,12.00
2022-11-18T05:18:55.052Z,12.10
2022-11-18T05:21:21.553Z,10.40
2022-11-18T05:23:47.950Z,13.97
2022-11-18T05:26:14.378Z,14.60
2022-11-18T05:28:40.808Z,10.97
2022-11-18T05:31:12.507Z,11.77
2022-11-18T05:33:39.108Z,12.93
2022-11-18T05:36:08.263Z,12.10
2022-11-18T05:38:35.473Z,13.00
2022-11-18T05:41:02.280Z,15.43
2022-11-18T05:43:29.968Z,15.77
2022-11-18T05:45:56.376Z,10.87
2022-11-18T05:48:23.117Z,10.90
2022-11-18T05:50:51.047Z,15.73
2022-11-18T05:53:18.393Z,12.13
2022-11-18T05:55:50.544Z,10.80
2022-11-18T05:58:16.958Z,12.77
2022-11-18T06:00:44.449Z,12.73
2022-11-18T06:03:19.268Z,12.83
2022-11-18T06:05:46.744Z,15.33
2022-11-18T06:08:14.354Z,16.57
2022-11-18T06:10:41.689Z,14.30
2022-11-18T06:13:09.910Z,11.53
2022-11-18T06:15:39.982Z,9.90
2022-11-18T06:18:20.459Z,12.10
2022-11-18T06:20:47.031Z,8.60
2022-11-18T06:23:13.488Z,11.40
2022-11-18T06:25:40.432Z,14.50
2022-11-18T06:28:07.094Z,14.73
2022-11-18T06:30:33.461Z,13.27
2022-11-18T06:33:00.042Z,17.20
2022-11-18T06:35:26.697Z,13.97
2022-11-18T06:37:53.056Z,12.53
2022-11-18T06:40:19.595Z,12.53
2022-11-18T06:43:04.819Z,9.90
2022-11-18T06:45:31.377Z,14.27
2022-11-18T06:47:58.589Z,12.40
2022-11-18T06:50:25.025Z,12.93
2022-11-18T06:52:51.551Z,6.20
2022-11-18T06:55:17.973Z,13.60
2022-11-18T06:57:44.418Z,13.97
2022-11-18T07:00:11.426Z,13.80
2022-11-18T07:02:38.004Z,16.10
2022-11-18T07:05:05.300Z,12.20
2022-11-18T07:07:31.825Z,13.07
2022-11-18T07:09:58.436Z,11.07
2022-11-18T07:12:24.799Z,14.23
2022-11-18T07:14:51.169Z,10.33
2022-11-18T07:17:17.779Z,15.67
2022-11-18T07:19:44.187Z,14.63
2022-11-18T07:22:10.550Z,11.70
2022-11-18T07:24:37.887Z,47.93
2022-11-18T07:27:04.318Z,87.47
2022-11-18T07:29:30.703Z,27.37
2022-11-18T07:31:59.221Z,15.87
2022-11-18T07:34:25.556Z,28.77
2022-11-18T07:36:51.951Z,14.60
2022-11-18T07:39:18.652Z,12.03
2022-11-18T07:41:45.177Z,11.63
2022-11-18T07:44:12.136Z,10.40
2022-11-18T07:46:38.518Z,9.73
2022-11-18T07:49:07.131Z,5.93
2022-11-18T07:51:36.473Z,10.40
2022-11-18T07:54:11.237Z,6.87
2022-11-18T07:56:37.766Z,13.10
2022-11-18T07:59:04.628Z,15.37
2022-11-18T08:01:31.587Z,9.37
2022-11-18T08:04:11.693Z,13.63
2022-11-18T08:06:38.923Z,10.83
2022-11-18T08:09:06.339Z,22.57
2022-11-18T08:11:32.986Z,111.33
2022-11-18T08:13:59.415Z,47.23
2022-11-18T08:16:26.301Z,16.87
2022-11-18T08:18:53.203Z,13.60
2022-11-18T08:21:21.056Z,11.37
2022-11-18T08:23:55.739Z,10.47
2022-11-18T08:26:22.504Z,14.37
2022-11-18T08:28:49.077Z,15.63
2022-11-18T08:31:25.183Z,16.13
2022-11-18T08:33:59.954Z,7.23
2022-11-18T08:36:28.691Z,14.30
2022-11-18T08:38:59.522Z,7.70
2022-11-18T08:41:32.193Z,12.13
2022-11-18T08:43:58.920Z,13.20
2022-11-18T08:46:25.275Z,11.00
2022-11-18T08:48:51.708Z,11.37
2022-11-18T08:51:18.110Z,10.73
2022-11-18T08:53:44.808Z,10.40
2022-11-18T08:56:17.130Z,14.87
2022-11-18T08:58:44.223Z,21.57
2022-11-18T09:01:10.854Z,26.13
2022-11-18T09:03:37.490Z,15.10
2022-11-18T09:06:07.000Z,15.70
2022-11-18T09:08:33.664Z,16.17
2022-11-18T09:11:00.297Z,24.27
2022-11-18T09:13:53.395Z,14.40
2022-11-18T09:16:13.637Z,15.47
2022-11-18T09:18:40.097Z,10.47
2022-11-18T09:21:08.630Z,10.43
2022-11-18T09:23:36.904Z,9.87
2022-11-18T09:26:06.594Z,14.40
2022-11-18T09:28:33.304Z,17.03
2022-11-18T09:31:03.771Z,10.60
2022-11-18T09:33:30.192Z,13.00
2022-11-18T09:35:56.595Z,13.73
2022-11-18T09:38:22.988Z,12.13
2022-11-18T09:41:09.189Z,16.70
2022-11-18T09:43:59.061Z,17.40
2022-11-18T09:46:39.065Z,21.10
2022-11-18T09:49:16.339Z,14.50
2022-11-18T09:51:48.109Z,17.97
2022-11-18T09:54:21.037Z,14.00
2022-11-18T09:56:48.690Z,15.83
2022-11-18T09:59:18.093Z,13.17
2022-11-18T10:01:45.987Z,22.60
2022-11-18T10:04:17.239Z,17.57
2022-11-18T10:06:44.944Z,17.60
2022-11-18T10:09:37.933Z,13.43
2022-11-18T10:12:46.717Z,18.10
2022-11-18T10:15:51.448Z,8.90
2022-11-18T10:19:00.754Z,10.33
2022-11-18T10:21:43.331Z,11.87
2022-11-18T10:24:19.406Z,17.17
2022-11-18T10:26:46.654Z,15.03
2022-11-18T10:29:13.216Z,13.60
2022-11-18T10:31:52.686Z,13.00
2022-11-18T10:34:20.144Z,14.10
2022-11-18T10:37:01.470Z,8.33
2022-11-18T10:39:28.029Z,9.47
2022-11-18T10:42:01.038Z,8.47
2022-11-18T10:44:32.054Z,4.97
2022-11-18T10:47:31.283Z,8.37
2022-11-18T10:50:00.172Z,5.67
2022-11-18T10:52:28.124Z,10.47
2022-11-18T10:55:14.163Z,8.93
2022-11-18T10:57:43.322Z,8.53
2022-11-18T11:00:42.895Z,11.50
2022-11-18T11:03:27.963Z,11.73
2022-11-18T11:06:13.564Z,8.60
2022-11-18T11:09:07.070Z,6.87
2022-11-18T11:11:43.375Z,7.00
2022-11-18T11:14:34.137Z,9.23
2022-11-18T11:17:13.085Z,8.83
2022-11-18T11:19:50.566Z,12.23
2022-11-18T11:22:17.204Z,11.83
2022-11-18T11:24:43.733Z,11.03
2022-11-18T11:30:35.866Z,9.47
2022-11-18T11:33:31.003Z,9.70
2022-11-18T11:36:12.396Z,10.73
2022-11-18T11:39:04.886Z,9.00
2022-11-18T11:41:52.926Z,10.87
2022-11-18T11:44:40.802Z,11.67
2022-11-18T11:47:42.689Z,13.37
2022-11-18T11:51:01.572Z,10.73
2022-11-18T11:53:56.441Z,8.33
2022-11-18T11:56:40.900Z,14.97
2022-11-18T11:59:35.572Z,15.97
2022-11-18T12:02:29.572Z,13.83
2022-11-18T12:05:17.847Z,14.80
2022-11-18T12:08:15.192Z,12.30
2022-11-18T12:10:52.751Z,14.77
2022-11-18T12:13:33.840Z,14.57
2022-11-18T12:16:03.359Z,15.13
2022-11-18T12:19:00.444Z,19.20
2022-11-18T12:21:48.111Z,13.37
2022-11-18T12:24:17.514Z,16.27
2022-11-18T12:26:45.871Z,17.83
2022-11-18T12:29:19.608Z,15.33
2022-11-18T12:31:53.249Z,15.80
2022-11-18T12:34:25.782Z,14.87
2022-11-18T12:36:55.991Z,20.00
2022-11-18T12:39:25.416Z,15.20
2022-11-18T12:42:18.052Z,14.73
2022-11-18T12:44:46.909Z,10.73
2022-11-18T12:47:15.964Z,16.27
2022-11-18T12:49:45.327Z,15.80
2022-11-18T12:52:30.218Z,21.73
2022-11-18T12:54:58.572Z,18.43
2022-11-18T12:57:29.499Z,17.83
2022-11-18T12:59:56.188Z,22.73
2022-11-18T13:02:25.680Z,17.50
2022-11-18T13:05:10.519Z,15.17
2022-11-18T13:08:03.929Z,20.43
2022-11-18T13:10:32.475Z,16.97
2022-11-18T13:12:59.737Z,17.10
2022-11-18T13:15:44.844Z,14.03
2022-11-18T13:18:20.051Z,22.47
2022-11-18T13:21:23.446Z,15.57
2022-11-18T13:23:57.642Z,19.87
2022-11-18T13:26:34.558Z,16.13
2022-11-18T13:29:20.703Z,13.07
2022-11-18T13:32:09.428Z,15.60
2022-11-18T13:34:51.164Z,19.50
2022-11-18T13:37:20.660Z,13.43
2022-11-18T13:39:49.069Z,14.03
2022-11-18T13:42:16.910Z,14.27
2022-11-18T13:45:02.393Z,14.63
2022-11-18T13:47:53.090Z,17.70
2022-11-18T13:50:27.461Z,15.50
2022-11-18T13:53:21.441Z,11.13
2022-11-18T13:55:59.333Z,16.80
2022-11-18T13:59:15.795Z,13.13
2022-11-18T14:01:35.377Z,10.90
2022-11-18T14:04:18.012Z,19.40
2022-11-18T14:06:44.972Z,12.17
2022-11-18T14:09:11.317Z,15.87
2022-11-18T14:11:43.251Z,17.97
2022-11-18T14:14:10.723Z,16.17
2022-11-18T14:16:38.968Z,14.17
2022-11-18T14:19:05.526Z,17.60
2022-11-18T14:21:34.090Z,20.13
2022-11-18T14:24:00.633Z,12.67
2022-11-18T14:26:35.189Z,16.67
2022-11-18T14:29:03.856Z,15.97
2022-11-18T14:31:31.820Z,14.13
2022-11-18T14:34:24.107Z,18.77
2022-11-18T14:36:51.206Z,15.77
2022-11-18T14:39:27.207Z,18.90
2022-11-18T14:41:56.061Z,20.97
2022-11-18T14:44:24.788Z,19.33
2022-11-18T14:47:02.088Z,13.57
2022-11-18T14:49:31.322Z,17.20
2022-11-18T14:51:58.413Z,10.43
2022-11-18T14:54:27.703Z,17.13
2022-11-18T14:56:57.836Z,13.50
2022-11-18T14:59:24.381Z,17.40
2022-11-18T15:01:51.035Z,17.67
2022-11-18T15:04:18.208Z,15.50
2022-11-18T15:06:45.197Z,11.73
2022-11-18T15:09:12.309Z,16.67
2022-11-18T15:11:38.670Z,16.37
2022-11-18T15:14:05.329Z,17.70
2022-11-18T15:16:34.027Z,13.03
2022-11-18T15:19:02.785Z,13.43
2022-11-18T15:21:29.317Z,13.20
2022-11-18T15:24:05.348Z,22.57
2022-11-18T15:26:37.633Z,17.53
2022-11-18T15:29:04.258Z,19.20
2022-11-18T15:31:30.632Z,17.87
2022-11-18T15:33:59.820Z,14.43
2022-11-18T15:36:29.993Z,21.30
2022-11-18T15:38:57.656Z,18.37
2022-11-18T15:41:26.397Z,18.43
2022-11-18T15:43:54.225Z,14.83
2022-11-18T15:46:22.295Z,13.20
2022-11-18T15:48:51.624Z,15.80
2022-11-18T15:51:18.238Z,10.60
2022-11-18T15:53:45.052Z,21.13
2022-11-18T15:56:23.712Z,16.33
2022-11-18T15:58:59.867Z,12.77
2022-11-18T16:01:28.874Z,13.57
2022-11-18T16:03:55.607Z,16.60
2022-11-18T16:06:22.789Z,12.67
2022-11-18T16:08:52.195Z,16.67
2022-11-18T16:11:41.038Z,19.63
2022-11-18T16:14:09.719Z,15.43
2022-11-18T16:16:37.636Z,17.23
2022-11-18T16:19:06.814Z,12.00
2022-11-18T16:21:36.536Z,13.50
2022-11-18T16:24:05.134Z,17.60
2022-11-18T16:26:33.723Z,15.20
2022-11-18T16:29:00.209Z,17.67
2022-11-18T16:31:42.121Z,14.60
2022-11-18T16:34:13.055Z,12.70
2022-11-18T16:36:42.217Z,13.20
2022-11-18T16:39:11.374Z,12.80
2022-11-18T16:41:39.499Z,15.63
2022-11-18T16:44:08.174Z,14.90
2022-11-18T16:46:37.424Z,17.67
2022-11-18T16:49:08.107Z,11.67
2022-11-18T16:51:35.258Z,15.60
2022-11-18T16:54:07.001Z,14.43
2022-11-18T16:56:34.988Z,13.70
2022-11-18T16:59:04.267Z,8.97
2022-11-18T17:01:32.805Z,12.37
2022-11-18T17:04:01.254Z,6.73
2022-11-18T17:06:29.083Z,9.80
2022-11-18T17:08:55.808Z,8.13
2022-11-18T17:11:22.239Z,10.77
2022-11-18T17:13:52.027Z,7.17
2022-11-18T17:16:23.784Z,10.50
2022-11-18T17:18:58.136Z,8.90
2022-11-18T17:21:25.387Z,9.33
2022-11-18T17:23:51.829Z,11.07
2022-11-18T17:26:22.297Z,16.47
2022-11-18T17:28:48.801Z,9.23
2022-11-18T17:31:18.057Z,10.67
2022-11-18T17:33:45.185Z,10.13
2022-11-18T17:36:16.563Z,7.17
2022-11-18T17:38:45.379Z,12.47
2022-11-18T17:41:35.082Z,8.73
2022-11-18T17:44:02.909Z,5.00
2022-11-18T17:46:34.813Z,9.13
2022-11-18T17:49:06.139Z,8.47
2022-11-18T17:51:32.894Z,7.70
2022-11-18T17:53:59.440Z,7.10
2022-11-18T17:56:26.007Z,7.17
2022-11-18T17:58:52.851Z,7.70
2022-11-18T18:01:20.816Z,6.13
2022-11-18T18:03:47.442Z,8.57
2022-11-18T18:06:14.647Z,8.17
2022-11-18T18:08:41.787Z,9.13
2022-11-18T18:11:18.247Z,4.43
2022-11-18T18:14:03.755Z,7.97
2022-11-18T18:16:32.005Z,5.13
2022-11-18T18:18:59.616Z,6.80
2022-11-18T18:21:30.857Z,6.13
2022-11-18T18:23:57.460Z,4.93
2022-11-18T18:26:28.265Z,5.13
2022-11-18T18:28:58.364Z,3.67
2022-11-18T18:31:25.181Z,9.73
2022-11-18T18:33:51.793Z,5.40
2022-11-18T18:36:21.054Z,6.40
2022-11-18T18:38:47.829Z,5.30
2022-11-18T18:41:20.234Z,4.70
2022-11-18T18:43:48.707Z,3.83
2022-11-18T18:46:29.856Z,3.03
2022-11-18T18:49:08.127Z,3.03
2022-11-18T18:51:43.075Z,5.13
2022-11-18T18:54:11.278Z,2.90
2022-11-18T18:56:40.854Z,7.73
2022-11-18T18:59:07.851Z,4.77
2022-11-18T19:01:35.351Z,5.37
2022-11-18T19:04:04.510Z,3.80
2022-11-18T19:06:53.152Z,2.83
2022-11-18T19:09:23.270Z,4.87
2022-11-18T19:12:08.847Z,4.03
2022-11-18T19:14:35.564Z,2.37
2022-11-18T19:17:09.611Z,4.13
2022-11-18T19:19:56.685Z,4.07
2022-11-18T19:22:23.151Z,4.00
2022-11-18T19:24:50.795Z,2.33
2022-11-18T19:27:19.142Z,3.77
2022-11-18T19:29:46.129Z,5.73
2022-11-18T19:32:12.932Z,4.43
2022-11-18T19:34:39.360Z,2.93
2022-11-18T19:37:05.791Z,3.13
2022-11-18T19:39:33.486Z,4.50
2022-11-18T19:41:59.978Z,2.73
2022-11-18T19:44:26.536Z,5.40
2022-11-18T19:46:52.942Z,6.17
2022-11-18T19:49:19.631Z,3.67
2022-11-18T19:51:47.237Z,3.47
2022-11-18T19:54:13.872Z,3.00
2022-11-18T19:56:40.291Z,2.87
2022-11-18T19:59:06.679Z,3.97
2022-11-18T20:01:33.410Z,5.03
2022-11-18T20:04:05.399Z,4.17
2022-11-18T20:06:32.335Z,5.30
2022-11-18T20:08:58.746Z,7.70
2022-11-18T20:11:25.227Z,5.93
2022-11-18T20:13:51.973Z,6.87
2022-11-18T20:16:23.415Z,6.03
2022-11-18T20:18:55.999Z,5.90
2022-11-18T20:21:23.475Z,4.47
2022-11-18T20:23:51.487Z,6.87
2022-11-18T20:26:21.191Z,4.07
2022-11-18T20:28:54.310Z,6.30
2022-11-18T20:31:23.198Z,4.37
2022-11-18T20:33:51.539Z,5.07
2022-11-18T20:36:23.488Z,6.80
2022-11-18T20:38:52.065Z,8.77
2022-11-18T20:41:19.365Z,3.80
2022-11-18T20:43:48.065Z,3.77
2022-11-18T20:46:20.018Z,3.63
2022-11-18T20:48:49.405Z,4.97
2022-11-18T20:51:21.232Z,4.37
2022-11-18T20:53:47.826Z,3.30
2022-11-18T20:56:17.174Z,3.07
2022-11-18T20:58:44.454Z,4.13
2022-11-18T21:01:17.762Z,3.37
2022-11-18T21:03:49.287Z,5.73
2022-11-18T21:06:15.865Z,4.93
2022-11-18T21:08:42.709Z,2.63
2022-11-18T21:11:11.231Z,5.27
2022-11-18T21:13:57.063Z,5.47
2022-11-18T21:16:23.907Z,5.60
2022-11-18T21:18:50.543Z,4.37
2022-11-18T21:21:36.126Z,4.73
2022-11-18T21:24:03.699Z,4.13
2022-11-18T21:26:32.168Z,3.07
2022-11-18T21:29:01.744Z,3.90
2022-11-18T21:31:28.894Z,3.57
2022-11-18T21:33:55.896Z,3.87
2022-11-18T21:36:23.829Z,3.00
2022-11-18T21:38:50.744Z,4.93
2022-11-18T21:41:17.622Z,8.23
2022-11-18T21:46:34.867Z,5.90
2022-11-18T21:49:02.341Z,4.47
2022-11-18T21:51:32.516Z,5.43
2022-11-18T21:53:59.892Z,3.70
2022-11-18T21:56:31.289Z,3.70
2022-11-18T21:58:59.804Z,7.33
2022-11-18T22:01:31.595Z,4.20
2022-11-18T22:04:00.466Z,4.33
2022-11-18T22:06:32.559Z,2.87
2022-11-18T22:08:59.598Z,2.80
2022-11-18T22:11:26.081Z,3.37
2022-11-18T22:13:53.332Z,5.57
2022-11-18T22:16:22.375Z,3.13
2022-11-18T22:18:56.068Z,4.30
2022-11-18T22:21:26.305Z,3.17
2022-11-18T22:23:53.294Z,4.87
2022-11-18T22:26:20.944Z,3.40
2022-11-18T22:28:53.481Z,3.97
2022-11-18T22:31:21.474Z,6.53
2022-11-18T22:33:49.820Z,3.80
2022-11-18T22:36:19.024Z,3.67
2022-11-18T22:38:45.716Z,3.20
2022-11-18T22:41:41.830Z,5.07
2022-11-18T22:44:09.375Z,3.37
2022-11-18T22:46:37.032Z,3.13
2022-11-18T22:49:04.477Z,5.33
2022-11-18T22:51:31.003Z,7.20
2022-11-18T22:54:22.704Z,5.07
2022-11-18T22:56:44.318Z,3.17
2022-11-18T22:59:12.194Z,7.40
2022-11-18T23:01:38.944Z,3.27
2022-11-18T23:04:05.614Z,2.90
2022-11-18T23:06:32.355Z,1.97
2022-11-18T23:08:58.981Z,4.13
2022-11-18T23:11:44.070Z,1.90
2022-11-18T23:14:10.747Z,7.03
2022-11-18T23:16:41.884Z,3.17
2022-11-18T23:19:11.289Z,2.93
2022-11-18T23:21:41.466Z,3.33
2022-11-18T23:24:11.847Z,4.53
2022-11-18T23:26:38.934Z,2.70
2022-11-18T23:29:05.555Z,6.90
2022-11-18T23:31:32.234Z,4.97
2022-11-18T23:33:59.818Z,2.50
2022-11-18T23:36:26.984Z,3.30
2022-11-18T23:38:54.050Z,5.20
2022-11-18T23:41:20.984Z,3.60
2022-11-18T23:43:48.717Z,6.27
2022-11-18T23:46:17.042Z,3.07
2022-11-18T23:48:44.023Z,5.20
2022-11-18T23:51:21.229Z,9.57
2022-11-18T23:53:52.454Z,2.87
2022-11-18T23:56:20.444Z,3.27
2022-11-18T23:58:50.635Z,2.73
